Time;durP1;ratioP1;P1;durP2;ratioP2;P2;SDS_P1;SDS_P2;PMS_P1;PMS_P2;Temp;Humidity;BMP_temperature;BMP_pressure;BME280_temperature;BME280_humidity;BME280_pressure;Samples;Min_cycle;Max_cycle;Signal;HPM_P1;HPM_P2
2022/03/07 00:00:23;;;;;;;22.67;13.93;;;0.90;36.10;;;;;;5048866;28;20406;-76
2022/03/07 00:02:49;;;;;;;21.35;13.60;;;0.90;36.40;;;;;;5052126;28;20442;-75
2022/03/07 00:05:15;;;;;;;21.40;13.90;;;0.80;35.50;;;;;;5056960;28;20712;-75
2022/03/07 00:07:41;;;;;;;22.35;13.80;;;0.70;36.20;;;;;;5054715;28;20740;-78
2022/03/07 00:10:07;;;;;;;22.52;12.52;;;0.60;39.00;;;;;;5059688;28;20439;-74
2022/03/07 00:12:33;;;;;;;20.73;11.73;;;0.70;37.20;;;;;;5053039;28;20512;-75
2022/03/07 00:14:58;;;;;;;22.47;12.70;;;0.70;35.40;;;;;;5051898;28;20526;-75
2022/03/07 00:17:24;;;;;;;19.23;12.20;;;0.80;35.90;;;;;;5054234;28;20529;-74
2022/03/07 00:19:49;;;;;;;20.73;12.85;;;0.80;35.00;;;;;;5052395;28;20433;-74
2022/03/07 00:22:15;;;;;;;22.13;13.40;;;0.90;34.10;;;;;;5053561;28;20401;-74
2022/03/07 00:24:41;;;;;;;26.30;12.20;;;0.90;35.20;;;;;;5054515;28;20484;-75
2022/03/07 00:27:06;;;;;;;20.63;12.85;;;1.00;34.40;;;;;;5049663;28;20404;-75
2022/03/07 00:29:32;;;;;;;19.03;11.90;;;1.10;34.50;;;;;;5042472;28;20416;-74
2022/03/07 00:31:57;;;;;;;21.30;12.30;;;1.20;33.60;;;;;;5057400;28;20401;-74
2022/03/07 00:34:23;;;;;;;23.80;12.80;;;1.20;33.30;;;;;;5068246;28;20433;-74
2022/03/07 00:36:48;;;;;;;20.83;12.57;;;1.30;33.50;;;;;;5066406;28;20446;-75
2022/03/07 00:39:14;;;;;;;23.20;13.60;;;1.30;32.20;;;;;;5052100;28;20510;-74
2022/03/07 00:41:40;;;;;;;18.00;12.30;;;1.40;32.00;;;;;;5052621;28;20427;-74
2022/03/07 00:44:05;;;;;;;22.20;12.65;;;1.40;32.00;;;;;;5054664;28;20429;-74
2022/03/07 00:46:31;;;;;;;21.20;13.40;;;1.30;33.80;;;;;;5055510;28;20436;-76
2022/03/07 00:48:59;;;;;;;17.73;12.50;;;1.40;32.80;;;;;;5051747;28;20491;-75
2022/03/07 00:51:25;;;;;;;24.25;13.75;;;1.40;33.50;;;;;;5052155;28;20413;-74
2022/03/07 00:53:51;;;;;;;18.27;12.50;;;1.40;33.70;;;;;;5050911;28;20918;-75
2022/03/07 00:56:16;;;;;;;20.92;12.90;;;1.40;33.00;;;;;;5054504;28;20398;-75
2022/03/07 00:58:42;;;;;;;18.87;13.37;;;1.40;34.20;;;;;;5050100;28;20980;-74
2022/03/07 01:01:08;;;;;;;21.03;12.13;;;1.30;34.30;;;;;;5053761;28;20448;-74
2022/03/07 01:03:33;;;;;;;21.80;13.05;;;1.50;32.00;;;;;;5052152;28;20894;-74
2022/03/07 01:05:59;;;;;;;22.03;12.63;;;1.60;32.40;;;;;;5056888;28;20403;-74
2022/03/07 01:08:26;;;;;;;19.65;13.27;;;1.60;32.70;;;;;;5057013;28;20435;-74
2022/03/07 01:10:52;;;;;;;18.95;13.15;;;1.50;33.60;;;;;;5055397;28;20413;-75
2022/03/07 01:13:18;;;;;;;25.38;13.70;;;1.40;34.00;;;;;;5054588;28;20443;-74
2022/03/07 01:15:45;;;;;;;19.88;13.70;;;1.20;34.90;;;;;;5055803;28;20401;-75
2022/03/07 01:18:10;;;;;;;21.25;12.30;;;1.30;34.90;;;;;;5053811;28;20416;-74
2022/03/07 01:20:36;;;;;;;22.65;13.48;;;1.40;34.00;;;;;;5054090;28;20405;-74
2022/03/07 01:23:02;;;;;;;23.10;13.60;;;1.30;35.40;;;;;;5054456;28;20464;-73
2022/03/07 01:25:28;;;;;;;19.60;12.80;;;1.50;33.60;;;;;;5049178;28;20395;-73
2022/03/07 01:27:53;;;;;;;22.48;12.30;;;1.80;31.20;;;;;;5050020;28;20389;-74
2022/03/07 01:30:19;;;;;;;21.83;11.95;;;1.90;30.50;;;;;;5052608;28;20404;-74
2022/03/07 01:32:45;;;;;;;23.37;12.50;;;1.90;29.40;;;;;;5051172;28;20463;-74
2022/03/07 01:35:10;;;;;;;18.40;11.77;;;1.90;29.80;;;;;;5052339;28;20393;-73
2022/03/07 01:37:36;;;;;;;19.58;12.80;;;1.90;29.30;;;;;;5052271;28;20401;-73
2022/03/07 01:40:03;;;;;;;19.83;12.00;;;1.80;29.40;;;;;;5049250;28;20485;-73
2022/03/07 01:42:28;;;;;;;20.77;12.48;;;1.80;30.50;;;;;;5049756;28;20923;-73
2022/03/07 01:44:54;;;;;;;18.73;12.13;;;1.80;30.10;;;;;;5052985;28;20397;-74
2022/03/07 01:47:19;;;;;;;19.52;12.20;;;1.90;29.30;;;;;;5052808;28;20439;-74
2022/03/07 01:49:45;;;;;;;23.77;13.13;;;1.80;30.60;;;;;;5054594;28;20499;-74
2022/03/07 01:52:12;;;;;;;20.98;12.23;;;1.80;31.50;;;;;;5054687;28;20433;-74
2022/03/07 01:54:38;;;;;;;20.33;12.10;;;1.80;29.50;;;;;;5054737;28;20444;-74
2022/03/07 01:57:04;;;;;;;20.50;12.07;;;1.80;29.80;;;;;;5053680;28;20393;-74
2022/03/07 01:59:33;;;;;;;24.05;13.82;;;1.80;30.10;;;;;;5052749;28;20414;-74
2022/03/07 02:02:00;;;;;;;21.15;13.07;;;1.80;30.00;;;;;;5054049;28;20481;-74
2022/03/07 02:04:26;;;;;;;23.05;14.35;;;1.80;30.70;;;;;;5054809;28;20452;-74
2022/03/07 02:06:52;;;;;;;20.00;13.40;;;1.80;30.90;;;;;;5055940;28;20560;-74
2022/03/07 02:09:17;;;;;;;22.40;13.93;;;1.80;30.60;;;;;;5062024;28;20412;-74
2022/03/07 02:11:43;;;;;;;23.40;14.20;;;1.80;31.00;;;;;;5065848;28;20387;-74
2022/03/07 02:14:14;;;;;;;21.33;13.43;;;1.50;32.90;;;;;;5073685;28;20474;-74
2022/03/07 02:16:40;;;;;;;21.70;13.77;;;1.70;31.20;;;;;;5056513;28;20451;-74
2022/03/07 02:19:06;;;;;;;21.50;13.48;;;1.70;31.30;;;;;;5063862;28;20403;-74
2022/03/07 02:21:37;;;;;;;21.02;13.20;;;1.70;31.10;;;;;;5061322;28;20399;-74
2022/03/07 02:24:04;;;;;;;20.80;12.95;;;1.70;30.40;;;;;;5072687;28;20419;-75
2022/03/07 02:26:30;;;;;;;19.38;13.20;;;1.70;31.10;;;;;;5068822;28;20401;-75
2022/03/07 02:28:56;;;;;;;22.25;13.70;;;1.70;31.10;;;;;;5056612;28;20405;-74
2022/03/07 02:31:22;;;;;;;25.00;14.00;;;1.60;31.60;;;;;;5057616;28;20391;-74
2022/03/07 02:33:48;;;;;;;20.33;13.63;;;1.60;32.60;;;;;;5062043;28;20415;-74
2022/03/07 02:36:14;;;;;;;22.00;14.00;;;1.60;32.40;;;;;;5063232;28;20768;-74
2022/03/07 02:38:40;;;;;;;23.92;13.55;;;1.70;32.10;;;;;;5060851;28;20399;-75
2022/03/07 02:41:05;;;;;;;22.47;14.20;;;1.70;30.80;;;;;;5067047;28;20399;-75
2022/03/07 02:43:31;;;;;;;22.20;14.60;;;1.60;32.20;;;;;;5068490;28;20408;-75
2022/03/07 02:45:58;;;;;;;22.25;14.60;;;1.20;33.90;;;;;;5070904;28;20423;-74
2022/03/07 02:48:25;;;;;;;19.97;13.27;;;1.20;36.20;;;;;;5054840;28;20490;-74
2022/03/07 02:50:50;;;;;;;21.95;14.50;;;1.60;32.30;;;;;;5070348;28;20449;-74
2022/03/07 02:53:16;;;;;;;24.10;14.47;;;1.80;33.00;;;;;;5066951;28;20404;-74
2022/03/07 02:55:42;;;;;;;22.48;14.10;;;1.80;33.70;;;;;;5064661;28;20395;-74
2022/03/07 02:58:07;;;;;;;22.50;14.00;;;1.60;33.10;;;;;;5061059;28;20795;-74
2022/03/07 03:00:33;;;;;;;25.20;15.43;;;1.80;31.60;;;;;;5063019;28;20408;-75
2022/03/07 03:02:59;;;;;;;26.88;14.93;;;1.80;32.20;;;;;;5063543;28;20752;-75
2022/03/07 03:05:25;;;;;;;24.13;14.70;;;1.50;32.70;;;;;;5063814;28;20403;-75
2022/03/07 03:07:53;;;;;;;25.40;15.25;;;1.50;33.90;;;;;;5069577;28;20399;-75
2022/03/07 03:10:20;;;;;;;22.90;14.70;;;1.60;32.30;;;;;;5068870;28;20400;-74
2022/03/07 03:12:46;;;;;;;29.25;16.45;;;1.50;33.00;;;;;;5080325;28;20479;-74
2022/03/07 03:15:13;;;;;;;23.85;14.52;;;1.30;34.60;;;;;;5076309;28;20402;-75
2022/03/07 03:17:40;;;;;;;25.50;15.23;;;1.30;35.00;;;;;;5049968;28;20398;-75
2022/03/07 03:20:08;;;;;;;28.40;17.85;;;1.50;33.30;;;;;;5065801;28;20402;-74
2022/03/07 03:22:34;;;;;;;28.50;16.88;;;1.30;33.80;;;;;;5078638;28;20873;-73
2022/03/07 03:25:00;;;;;;;30.70;16.38;;;0.80;35.40;;;;;;5077960;28;20411;-74
2022/03/07 03:27:25;;;;;;;26.65;15.85;;;0.70;38.40;;;;;;5060643;28;20398;-75
2022/03/07 03:29:51;;;;;;;26.33;15.35;;;0.80;40.30;;;;;;5050248;28;20401;-74
2022/03/07 03:32:17;;;;;;;23.93;15.03;;;1.30;34.90;;;;;;5049811;28;20405;-72
2022/03/07 03:34:42;;;;;;;27.95;15.48;;;1.40;33.50;;;;;;5060089;28;20770;-72
2022/03/07 03:37:08;;;;;;;26.30;16.03;;;1.60;34.70;;;;;;5063553;28;20388;-72
2022/03/07 03:39:34;;;;;;;25.77;15.03;;;1.70;32.40;;;;;;5062237;28;20490;-72
2022/03/07 03:41:59;;;;;;;25.02;15.27;;;1.70;32.00;;;;;;5067265;28;20881;-72
2022/03/07 03:44:25;;;;;;;25.83;15.25;;;1.70;32.50;;;;;;5063729;28;20490;-72
2022/03/07 03:46:50;;;;;;;26.33;15.70;;;1.70;32.10;;;;;;5067115;28;20482;-72
2022/03/07 03:49:16;;;;;;;26.83;16.20;;;1.60;33.10;;;;;;5058872;28;20496;-72
2022/03/07 03:51:42;;;;;;;31.73;16.80;;;1.60;34.10;;;;;;5065023;28;20406;-72
2022/03/07 03:54:07;;;;;;;26.98;16.25;;;1.50;34.60;;;;;;5066656;28;20753;-72
2022/03/07 03:56:33;;;;;;;26.60;15.30;;;1.60;34.70;;;;;;5067037;28;20394;-72
2022/03/07 03:58:59;;;;;;;24.23;15.60;;;1.60;34.60;;;;;;5067933;28;20396;-72
2022/03/07 04:01:24;;;;;;;24.17;14.30;;;1.80;32.90;;;;;;5063710;28;20407;-72
2022/03/07 04:03:50;;;;;;;25.03;15.17;;;1.80;31.30;;;;;;5060093;28;20396;-72
2022/03/07 04:06:15;;;;;;;24.33;15.60;;;1.80;32.50;;;;;;5057554;28;20408;-72
2022/03/07 04:08:41;;;;;;;26.90;16.70;;;1.70;33.10;;;;;;5050024;28;20397;-72
2022/03/07 04:11:07;;;;;;;25.50;15.50;;;1.60;33.50;;;;;;5054680;28;20755;-72
2022/03/07 04:13:32;;;;;;;26.98;16.40;;;1.50;34.30;;;;;;5065652;28;20405;-73
2022/03/07 04:15:58;;;;;;;27.37;15.23;;;1.70;32.80;;;;;;5067061;28;20930;-72
2022/03/07 04:18:23;;;;;;;23.90;15.32;;;1.80;31.90;;;;;;5060128;28;20883;-72
2022/03/07 04:20:49;;;;;;;24.52;16.27;;;1.80;32.50;;;;;;5057303;28;20380;-72
2022/03/07 04:23:20;;;;;;;24.83;15.10;;;1.80;32.50;;;;;;5063357;28;20396;-72
2022/03/07 04:25:47;;;;;;;23.15;14.73;;;1.70;34.10;;;;;;5054990;28;20431;-72
2022/03/07 04:28:13;;;;;;;22.65;14.90;;;1.80;32.50;;;;;;5057533;28;20492;-72
2022/03/07 04:30:39;;;;;;;27.80;16.23;;;1.80;32.30;;;;;;5056888;28;21002;-72
2022/03/07 04:33:05;;;;;;;28.30;15.63;;;1.80;31.80;;;;;;5057221;28;20466;-72
2022/03/07 04:35:30;;;;;;;24.60;15.37;;;1.60;33.80;;;;;;5057897;28;20405;-72
2022/03/07 04:37:56;;;;;;;23.30;15.03;;;1.50;34.60;;;;;;5061245;28;20451;-72
2022/03/07 04:40:22;;;;;;;21.85;14.07;;;1.70;34.50;;;;;;5055250;28;20401;-72
2022/03/07 04:42:47;;;;;;;24.27;14.60;;;1.60;33.30;;;;;;5057743;28;20914;-72
2022/03/07 04:45:13;;;;;;;28.53;15.37;;;1.80;31.00;;;;;;5056957;28;20404;-72
2022/03/07 04:47:40;;;;;;;21.85;15.98;;;1.70;31.00;;;;;;5058661;28;20397;-72
2022/03/07 04:50:06;;;;;;;25.75;15.77;;;1.30;33.30;;;;;;5052373;28;20401;-72
2022/03/07 04:52:33;;;;;;;25.30;16.15;;;1.00;33.80;;;;;;5056074;28;20426;-72
2022/03/07 04:54:58;;;;;;;27.95;16.40;;;0.80;35.20;;;;;;5055775;28;20389;-72
2022/03/07 04:57:24;;;;;;;22.60;15.53;;;0.80;37.40;;;;;;5052692;28;20400;-72
2022/03/07 04:59:49;;;;;;;25.92;16.00;;;0.80;38.30;;;;;;5052193;28;20759;-72
2022/03/07 05:02:15;;;;;;;30.30;16.73;;;0.80;37.60;;;;;;5052387;28;20397;-72
2022/03/07 05:04:41;;;;;;;21.93;15.40;;;0.80;37.80;;;;;;5058749;28;20501;-73
2022/03/07 05:07:07;;;;;;;25.30;16.23;;;0.80;38.00;;;;;;5059770;28;20393;-72
2022/03/07 05:09:34;;;;;;;26.60;16.20;;;1.00;37.60;;;;;;5054951;28;20953;-74
2022/03/07 05:11:59;;;;;;;29.83;15.70;;;1.00;37.70;;;;;;5056317;28;20475;-74
2022/03/07 05:14:25;;;;;;;24.48;15.18;;;1.40;36.20;;;;;;5061845;28;20417;-73
2022/03/07 05:16:50;;;;;;;25.50;15.30;;;1.40;35.30;;;;;;5060767;28;20396;-72
2022/03/07 05:19:16;;;;;;;21.87;15.07;;;1.80;34.60;;;;;;5060241;28;20401;-72
2022/03/07 05:21:42;;;;;;;23.27;15.23;;;1.70;32.50;;;;;;5068811;28;20393;-72
2022/03/07 05:24:09;;;;;;;28.38;15.55;;;1.70;33.60;;;;;;5065728;28;20409;-72
2022/03/07 05:26:35;;;;;;;25.73;15.35;;;2.20;30.60;;;;;;5053082;28;20435;-72
2022/03/07 05:29:01;;;;;;;26.05;15.40;;;2.00;29.90;;;;;;5053795;28;20395;-72
2022/03/07 05:31:26;;;;;;;23.92;14.77;;;1.90;31.50;;;;;;5053757;28;20397;-72
2022/03/07 05:33:52;;;;;;;29.88;15.23;;;1.70;32.90;;;;;;5062947;28;20504;-72
2022/03/07 05:36:17;;;;;;;29.13;16.27;;;1.60;33.60;;;;;;5053190;28;20500;-73
2022/03/07 05:38:43;;;;;;;26.53;15.90;;;1.50;33.90;;;;;;5034424;28;20397;-72
2022/03/07 05:41:09;;;;;;;23.97;13.77;;;1.30;34.00;;;;;;5056028;28;20429;-72
2022/03/07 05:43:35;;;;;;;27.95;16.08;;;1.40;35.90;;;;;;5052724;28;20407;-72
2022/03/07 05:46:00;;;;;;;24.27;15.02;;;1.50;36.00;;;;;;5051332;28;20856;-72
2022/03/07 05:48:26;;;;;;;23.98;14.10;;;1.50;36.00;;;;;;5051384;28;20428;-72
2022/03/07 05:50:52;;;;;;;23.63;13.95;;;1.50;37.60;;;;;;5054351;28;20406;-73
2022/03/07 05:53:21;;;;;;;23.13;13.53;;;1.50;36.80;;;;;;5053561;28;20474;-72
2022/03/07 05:55:48;;;;;;;16.73;11.98;;;1.50;34.90;;;;;;5050187;28;20407;-71
2022/03/07 05:58:14;;;;;;;29.45;13.77;;;1.50;36.30;;;;;;5051134;28;20696;-71
2022/03/07 06:00:39;;;;;;;18.27;13.23;;;1.60;36.00;;;;;;5056662;28;20392;-72
2022/03/07 06:03:05;;;;;;;18.40;12.30;;;1.60;35.20;;;;;;5057002;28;20400;-72
2022/03/07 06:05:31;;;;;;;23.25;12.75;;;1.60;36.00;;;;;;5050685;28;20508;-76
2022/03/07 06:07:57;;;;;;;18.83;11.90;;;1.50;36.30;;;;;;5055632;28;20401;-73
2022/03/07 06:10:22;;;;;;;16.27;11.87;;;1.70;35.10;;;;;;5058657;28;20407;-73
2022/03/07 06:12:48;;;;;;;21.02;13.50;;;2.10;32.00;;;;;;5069264;28;20413;-75
2022/03/07 06:15:14;;;;;;;25.35;13.73;;;1.90;31.70;;;;;;5057559;28;20478;-75
2022/03/07 06:17:50;;;;;;;24.60;13.00;;;1.50;32.50;;;;;;5058325;28;20401;-75
2022/03/07 06:20:16;;;;;;;21.15;13.18;;;1.40;35.00;;;;;;5057143;28;20450;-74
2022/03/07 06:22:41;;;;;;;20.88;12.88;;;1.30;34.80;;;;;;5061999;28;20399;-74
2022/03/07 06:25:07;;;;;;;19.75;12.88;;;1.30;36.10;;;;;;5056083;28;20872;-74
2022/03/07 06:27:33;;;;;;;18.83;12.87;;;1.20;35.80;;;;;;5055271;28;21239;-74
2022/03/07 06:29:58;;;;;;;24.05;12.80;;;1.30;36.20;;;;;;5048500;28;20405;-75
2022/03/07 06:32:24;;;;;;;20.92;13.25;;;1.40;37.70;;;;;;5040108;28;20411;-75
2022/03/07 06:34:50;;;;;;;20.42;13.15;;;1.30;36.90;;;;;;5066141;28;20400;-75
2022/03/07 06:37:16;;;;;;;27.65;14.70;;;1.30;37.50;;;;;;5055589;28;20389;-74
2022/03/07 06:39:41;;;;;;;26.60;14.40;;;1.10;36.80;;;;;;5061025;28;20473;-75
2022/03/07 06:42:07;;;;;;;31.27;13.20;;;1.10;37.00;;;;;;5065235;28;20508;-76
2022/03/07 06:44:33;;;;;;;21.30;12.25;;;1.20;36.90;;;;;;5063371;28;20902;-75
2022/03/07 06:46:59;;;;;;;18.20;11.30;;;1.20;37.20;;;;;;5064152;28;20895;-75
2022/03/07 06:49:25;;;;;;;19.58;10.60;;;1.20;37.30;;;;;;5060834;28;20575;-76
2022/03/07 06:51:50;;;;;;;15.55;10.93;;;1.30;36.80;;;;;;5059351;28;20409;-74
2022/03/07 06:54:16;;;;;;;17.17;11.30;;;1.50;37.50;;;;;;5054368;28;20408;-75
2022/03/07 06:56:42;;;;;;;18.30;10.50;;;1.50;36.70;;;;;;5057581;28;20403;-75
2022/03/07 06:59:07;;;;;;;29.97;17.00;;;1.60;35.90;;;;;;5056144;28;20465;-75
2022/03/07 07:01:33;;;;;;;251.47;126.23;;;1.50;34.00;;;;;;5059287;28;20501;-76
2022/03/07 07:03:59;;;;;;;24.95;14.55;;;1.70;45.60;;;;;;5055585;28;20448;-75
2022/03/07 07:06:24;;;;;;;90.15;44.58;;;1.90;37.90;;;;;;5053970;28;20779;-75
2022/03/07 07:08:50;;;;;;;49.78;24.83;;;2.40;42.40;;;;;;5052430;28;20417;-75
2022/03/07 07:11:16;;;;;;;18.67;10.60;;;2.80;39.20;;;;;;5054817;28;20415;-75
2022/03/07 07:13:41;;;;;;;16.30;9.67;;;2.70;36.60;;;;;;5050591;28;20847;-74
2022/03/07 07:16:07;;;;;;;17.20;10.10;;;2.50;34.20;;;;;;5032993;28;20459;-75
2022/03/07 07:18:32;;;;;;;14.30;8.50;;;2.40;32.60;;;;;;5049304;28;20416;-74
2022/03/07 07:20:58;;;;;;;13.93;7.80;;;2.30;31.20;;;;;;5044978;28;20412;-75
2022/03/07 07:23:24;;;;;;;12.10;7.80;;;2.20;30.40;;;;;;5049137;28;20401;-75
2022/03/07 07:25:49;;;;;;;10.43;8.40;;;2.20;29.30;;;;;;5046854;28;20429;-74
2022/03/07 07:28:15;;;;;;;8.57;6.65;;;2.50;30.30;;;;;;5059477;28;20452;-75
2022/03/07 07:30:41;;;;;;;10.95;7.05;;;2.70;28.00;;;;;;5053675;28;20410;-74
2022/03/07 07:33:06;;;;;;;12.03;7.50;;;2.90;26.30;;;;;;5053702;28;21186;-74
2022/03/07 07:35:34;;;;;;;8.07;6.30;;;3.00;26.40;;;;;;5047746;28;20417;-74
2022/03/07 07:38:00;;;;;;;10.57;6.37;;;3.20;25.20;;;;;;5049721;28;20424;-74
2022/03/07 07:40:26;;;;;;;14.48;6.03;;;3.10;25.90;;;;;;5048386;28;20393;-74
2022/03/07 07:42:52;;;;;;;10.43;6.22;;;3.30;24.20;;;;;;5050700;28;20402;-74
2022/03/07 07:45:17;;;;;;;12.73;6.00;;;3.20;23.40;;;;;;5044046;28;20399;-73
2022/03/07 07:47:43;;;;;;;7.35;5.72;;;3.30;22.50;;;;;;5041305;28;20493;-74
2022/03/07 07:50:09;;;;;;;25.75;9.55;;;3.30;23.30;;;;;;5047394;28;20437;-74
2022/03/07 07:52:35;;;;;;;9.07;5.57;;;3.50;22.10;;;;;;5042666;28;20475;-74
2022/03/07 07:55:02;;;;;;;8.15;5.75;;;3.60;22.60;;;;;;5047838;28;20390;-72
2022/03/07 07:57:28;;;;;;;11.48;5.88;;;3.60;21.80;;;;;;5052914;28;20514;-73
2022/03/07 07:59:53;;;;;;;7.60;5.70;;;3.40;21.90;;;;;;5051147;28;20913;-74
2022/03/07 08:02:19;;;;;;;13.52;5.30;;;3.60;20.40;;;;;;5049476;28;20396;-73
2022/03/07 08:04:44;;;;;;;6.40;5.30;;;3.60;20.40;;;;;;5045698;28;20388;-74
2022/03/07 08:07:10;;;;;;;17.57;6.43;;;3.70;20.50;;;;;;5047315;28;20957;-74
2022/03/07 08:09:36;;;;;;;10.77;5.60;;;3.80;20.70;;;;;;5048739;28;20469;-73
2022/03/07 08:12:02;;;;;;;7.60;5.50;;;3.70;19.70;;;;;;5042967;28;20405;-73
2022/03/07 08:14:28;;;;;;;6.43;5.35;;;3.70;18.70;;;;;;5042237;28;20433;-73
2022/03/07 08:16:53;;;;;;;11.93;6.00;;;4.00;20.30;;;;;;5059753;28;20897;-73
2022/03/07 08:19:19;;;;;;;8.80;5.57;;;3.80;18.70;;;;;;5053719;28;20508;-75
2022/03/07 08:21:45;;;;;;;8.60;5.60;;;3.80;20.30;;;;;;5054732;28;20411;-74
2022/03/07 08:24:11;;;;;;;6.53;4.50;;;4.00;20.60;;;;;;5062513;28;20410;-75
2022/03/07 08:26:38;;;;;;;7.72;5.50;;;3.90;18.10;;;;;;5045918;28;20439;-75
2022/03/07 08:29:04;;;;;;;6.20;5.00;;;3.90;19.50;;;;;;5048246;28;20399;-75
2022/03/07 08:31:30;;;;;;;4.80;4.40;;;4.00;18.50;;;;;;5046911;28;20420;-75
2022/03/07 08:33:55;;;;;;;6.85;4.63;;;3.80;18.50;;;;;;5040318;28;20408;-75
2022/03/07 08:36:21;;;;;;;7.80;5.10;;;4.00;18.60;;;;;;5043152;28;20435;-73
2022/03/07 08:38:47;;;;;;;7.23;5.03;;;4.20;19.90;;;;;;5042829;28;20412;-74
2022/03/07 08:41:12;;;;;;;5.00;4.50;;;4.40;18.00;;;;;;5044590;28;20399;-74
2022/03/07 08:43:39;;;;;;;6.45;4.82;;;4.40;19.00;;;;;;5047070;28;20405;-74
2022/03/07 08:46:04;;;;;;;6.38;5.00;;;4.30;18.40;;;;;;5044637;28;20770;-74
2022/03/07 08:48:30;;;;;;;7.10;5.10;;;4.20;18.30;;;;;;5046269;28;20488;-74
2022/03/07 08:50:56;;;;;;;9.43;4.87;;;4.50;16.70;;;;;;5042180;28;20757;-74
2022/03/07 08:53:21;;;;;;;6.67;4.40;;;4.20;17.40;;;;;;5050405;28;20405;-76
2022/03/07 08:55:47;;;;;;;5.20;4.70;;;4.30;17.50;;;;;;5058327;28;20974;-74
2022/03/07 08:58:13;;;;;;;6.85;4.50;;;4.40;18.20;;;;;;5048650;28;20385;-74
2022/03/07 09:00:38;;;;;;;10.47;5.20;;;4.30;17.60;;;;;;5051139;28;20918;-74
2022/03/07 09:03:04;;;;;;;6.80;5.27;;;4.60;18.70;;;;;;5044927;28;20405;-73
2022/03/07 09:05:30;;;;;;;6.30;5.10;;;4.80;18.90;;;;;;5044652;28;21049;-74
2022/03/07 09:07:56;;;;;;;6.75;4.82;;;4.90;18.20;;;;;;5042596;28;20978;-74
2022/03/07 09:10:22;;;;;;;9.13;4.80;;;4.70;16.10;;;;;;5062318;28;20409;-72
2022/03/07 09:12:48;;;;;;;5.07;4.20;;;4.60;17.30;;;;;;5054168;28;20413;-72
2022/03/07 09:15:14;;;;;;;13.10;7.30;;;4.60;17.00;;;;;;5043721;28;20491;-73
2022/03/07 09:17:40;;;;;;;5.37;4.57;;;4.90;18.00;;;;;;5041468;28;20519;-74
2022/03/07 09:20:07;;;;;;;5.57;4.43;;;5.00;17.20;;;;;;5051739;28;20933;-74
2022/03/07 09:22:33;;;;;;;6.82;4.57;;;5.00;16.90;;;;;;5043590;28;20798;-74
2022/03/07 09:24:59;;;;;;;6.65;4.43;;;5.00;16.90;;;;;;5048988;28;20411;-76
2022/03/07 09:27:25;;;;;;;8.30;4.97;;;5.40;15.20;;;;;;5048830;28;20745;-75
2022/03/07 09:29:51;;;;;;;8.00;4.70;;;5.20;16.20;;;;;;5043733;28;20437;-75
2022/03/07 09:32:16;;;;;;;6.13;4.80;;;5.10;17.10;;;;;;5046653;28;20445;-75
2022/03/07 09:34:42;;;;;;;5.77;4.40;;;5.20;16.40;;;;;;5040620;28;20393;-76
2022/03/07 09:37:07;;;;;;;7.27;4.60;;;5.40;16.70;;;;;;5047799;28;20891;-75
2022/03/07 09:39:34;;;;;;;8.27;4.70;;;5.40;14.90;;;;;;5041871;28;20401;-75
2022/03/07 09:42:01;;;;;;;6.15;4.07;;;5.50;16.00;;;;;;5054411;28;20439;-74
2022/03/07 09:44:30;;;;;;;5.55;5.05;;;5.40;16.40;;;;;;5043403;28;20409;-74
2022/03/07 09:46:57;;;;;;;11.32;5.35;;;5.40;15.90;;;;;;5043205;28;20767;-75
2022/03/07 09:49:23;;;;;;;9.07;4.43;;;5.30;15.40;;;;;;5042736;28;20413;-74
2022/03/07 09:51:49;;;;;;;7.05;4.47;;;5.70;15.60;;;;;;5047348;28;20417;-74
2022/03/07 09:54:15;;;;;;;6.53;4.60;;;5.70;15.10;;;;;;5052318;28;20479;-74
2022/03/07 09:56:40;;;;;;;7.25;4.70;;;5.80;14.70;;;;;;5054973;28;20897;-73
2022/03/07 09:59:09;;;;;;;4.45;4.05;;;5.80;14.20;;;;;;5052053;28;20397;-73
2022/03/07 10:01:36;;;;;;;7.93;4.30;;;5.80;14.80;;;;;;5048028;28;20450;-76
2022/03/07 10:04:07;;;;;;;10.77;4.80;;;5.70;13.90;;;;;;5044879;28;20418;-77
2022/03/07 10:06:32;;;;;;;7.15;4.55;;;5.70;14.70;;;;;;5049899;28;20413;-76
2022/03/07 10:09:00;;;;;;;7.95;4.40;;;5.60;15.40;;;;;;5047729;28;20524;-75
2022/03/07 10:11:28;;;;;;;6.05;4.78;;;5.60;14.90;;;;;;5049373;28;20397;-76
2022/03/07 10:14:02;;;;;;;5.65;4.55;;;5.70;15.20;;;;;;5045032;28;20417;-77
2022/03/07 10:16:43;;;;;;;8.40;4.93;;;5.60;14.50;;;;;;5051632;28;20901;-75
2022/03/07 10:19:13;;;;;;;9.00;4.50;;;5.80;14.50;;;;;;5047037;28;20465;-75
2022/03/07 10:21:52;;;;;;;9.25;4.70;;;5.70;14.90;;;;;;5053452;28;20401;-80
2022/03/07 10:24:29;;;;;;;5.47;4.50;;;5.80;15.70;;;;;;5056023;28;20491;-76
2022/03/07 10:26:55;;;;;;;9.38;4.95;;;6.10;14.10;;;;;;5059326;28;20455;-74
2022/03/07 10:29:21;;;;;;;5.87;4.40;;;6.10;15.90;;;;;;5043013;28;21152;-75
2022/03/07 10:31:48;;;;;;;5.00;4.30;;;6.20;13.20;;;;;;5047007;28;20412;-77
2022/03/07 10:34:13;;;;;;;5.30;4.10;;;6.20;14.30;;;;;;5046015;28;20411;-75
2022/03/07 10:36:43;;;;;;;4.83;4.33;;;6.10;14.60;;;;;;5048048;28;20397;-74
2022/03/07 10:39:13;;;;;;;4.95;4.45;;;6.30;14.80;;;;;;5046594;28;20401;-76
2022/03/07 10:41:41;;;;;;;6.97;5.10;;;6.20;13.60;;;;;;5047095;28;20439;-74
2022/03/07 10:44:10;;;;;;;5.82;4.65;;;6.10;13.60;;;;;;5047793;28;20408;-75
2022/03/07 10:46:36;;;;;;;9.60;4.57;;;6.20;13.60;;;;;;5049472;28;20441;-75
2022/03/07 10:49:05;;;;;;;7.50;4.50;;;6.30;14.30;;;;;;5048884;28;20454;-77
2022/03/07 10:51:32;;;;;;;4.80;4.30;;;6.40;13.90;;;;;;5048652;28;20398;-76
2022/03/07 10:54:13;;;;;;;6.18;4.43;;;6.40;14.60;;;;;;5040326;28;20923;-76
2022/03/07 10:56:52;;;;;;;7.22;4.30;;;6.50;14.60;;;;;;5051375;28;20398;-76
2022/03/07 10:59:29;;;;;;;5.20;4.60;;;6.50;14.10;;;;;;5051687;28;20446;-76
2022/03/07 11:02:00;;;;;;;7.77;5.17;;;6.40;13.90;;;;;;5049643;28;20414;-74
2022/03/07 11:04:26;;;;;;;5.25;4.50;;;6.50;15.50;;;;;;5047135;28;20902;-74
2022/03/07 11:06:52;;;;;;;5.95;4.30;;;6.50;13.10;;;;;;5045901;28;20473;-76
2022/03/07 11:09:18;;;;;;;6.05;4.30;;;6.70;13.70;;;;;;5050106;28;20401;-75
2022/03/07 11:11:45;;;;;;;5.93;4.63;;;6.90;12.70;;;;;;5053744;28;20409;-74
2022/03/07 11:14:12;;;;;;;5.32;4.40;;;6.90;13.00;;;;;;5051184;28;20792;-74
2022/03/07 11:16:39;;;;;;;7.28;4.60;;;6.80;13.20;;;;;;5053139;28;20396;-75
2022/03/07 11:19:06;;;;;;;7.65;4.68;;;6.80;13.20;;;;;;5062579;28;20725;-76
2022/03/07 11:21:35;;;;;;;6.22;4.60;;;6.90;13.30;;;;;;5063123;28;20393;-76
2022/03/07 11:24:00;;;;;;;5.20;4.60;;;6.90;12.60;;;;;;5067475;28;20403;-75
2022/03/07 11:26:26;;;;;;;7.78;4.47;;;7.10;13.30;;;;;;5060836;28;20405;-76
2022/03/07 11:28:52;;;;;;;7.00;4.47;;;7.10;12.30;;;;;;5049725;28;20592;-75
2022/03/07 11:31:28;;;;;;;11.20;4.28;;;7.10;12.60;;;;;;5046252;28;20401;-74
2022/03/07 11:33:55;;;;;;;5.30;4.40;;;6.90;13.10;;;;;;5047968;28;20470;-74
2022/03/07 11:36:23;;;;;;;7.60;4.68;;;7.00;13.90;;;;;;5049919;28;20496;-75
2022/03/07 11:39:01;;;;;;;9.07;4.60;;;7.30;12.10;;;;;;5056515;28;20812;-75
2022/03/07 11:41:32;;;;;;;5.75;4.25;;;7.20;12.50;;;;;;5055867;28;20393;-75
2022/03/07 11:44:04;;;;;;;4.75;4.35;;;7.30;11.80;;;;;;5065699;28;20396;-76
2022/03/07 11:46:41;;;;;;;5.55;4.35;;;7.30;11.40;;;;;;5064678;28;20436;-76
2022/03/07 11:49:10;;;;;;;5.72;3.88;;;7.30;12.90;;;;;;5052761;28;20492;-76
2022/03/07 11:51:38;;;;;;;6.05;4.43;;;7.30;13.30;;;;;;5051788;28;20949;-76
2022/03/07 11:54:07;;;;;;;5.30;4.23;;;7.40;12.50;;;;;;5046939;28;21054;-74
2022/03/07 11:56:37;;;;;;;5.90;4.00;;;7.50;12.10;;;;;;5050289;28;20398;-74
2022/03/07 11:59:05;;;;;;;5.10;4.20;;;7.60;12.10;;;;;;5050512;28;21043;-75
2022/03/07 12:01:32;;;;;;;7.30;4.40;;;7.70;11.80;;;;;;5051197;28;20393;-76
2022/03/07 12:04:14;;;;;;;8.73;4.72;;;7.80;11.10;;;;;;5058240;28;20417;-77
2022/03/07 12:06:48;;;;;;;7.22;4.00;;;7.70;11.30;;;;;;5051962;28;20469;-74
2022/03/07 12:09:33;;;;;;;7.40;4.30;;;7.90;10.80;;;;;;5050805;28;20480;-74
2022/03/07 12:12:01;;;;;;;5.70;3.80;;;7.90;9.80;;;;;;5057957;28;20396;-75
2022/03/07 12:14:28;;;;;;;5.35;4.25;;;8.00;10.90;;;;;;5071342;28;20437;-77
2022/03/07 12:16:54;;;;;;;5.30;3.80;;;8.00;9.80;;;;;;5070598;28;20518;-74
2022/03/07 12:19:22;;;;;;;11.45;4.30;;;7.90;10.00;;;;;;5071401;28;20899;-76
2022/03/07 12:21:49;;;;;;;5.90;4.25;;;7.70;10.40;;;;;;5053671;28;20393;-75
2022/03/07 12:24:17;;;;;;;5.97;3.72;;;7.70;10.90;;;;;;5046147;28;20405;-76
2022/03/07 12:26:54;;;;;;;5.72;4.43;;;7.90;9.80;;;;;;5055781;28;20409;-74
2022/03/07 12:29:22;;;;;;;5.07;4.15;;;8.10;11.40;;;;;;5050900;28;20412;-75
2022/03/07 12:32:08;;;;;;;5.45;4.10;;;8.10;10.30;;;;;;5045296;28;20405;-75
2022/03/07 12:34:35;;;;;;;4.45;3.90;;;8.10;10.40;;;;;;5068478;28;20419;-75
2022/03/07 12:37:03;;;;;;;4.13;3.72;;;8.10;10.50;;;;;;5053803;28;20399;-75
2022/03/07 12:39:42;;;;;;;5.50;3.80;;;8.20;9.50;;;;;;5050704;28;20799;-76
2022/03/07 12:42:07;;;;;;;5.78;4.10;;;8.30;10.10;;;;;;5048789;28;20431;-75